Grover Beach, California
Current Conditions -  °F | °C
As of 12:56 PM on Thursday 18 Dec 2014 (Local Time) from KSBP Reporting Station
Overcast Overcast  
Wind Chill: 60°   Ceiling: 2300
Heat Index: 60°   Visibility: 10mi
Dew Point: 51°   Wind: 5mph
Humidity: 72%   Direction: 150°SSE
Pressure: 30.15"   Gusts: NA
Location:  35.12°N, 120.62°W
Report Text: KSBP 182056Z 15004KT 10SM OVC023 16/11 A3015 RMK AO2 SLP208 T01560106 58014
Loading
Personal Weather Stations






























Interactive Weather Map New forecast layout! Learn more

10-Day Weather Forecast

Advertisements
Track Severe Weather on mobile